Time;durP1;ratioP1;P1;durP2;ratioP2;P2;SDS_P1;SDS_P2;PMS_P1;PMS_P2;Temp;Humidity;BMP_temperature;BMP_pressure;BME280_temperature;BME280_humidity;BME280_pressure;Samples;Min_cycle;Max_cycle;Signal;HPM_P1;HPM_P2
2022/11/09 00:00:49;;;;;;;19.15;15.35;;;;;;;6.35;100.00;100392.95;1756311;80;21898;-65
2022/11/09 00:03:16;;;;;;;17.02;12.85;;;;;;;6.36;100.00;100398.58;1750741;80;21462;-64
2022/11/09 00:05:43;;;;;;;15.57;13.40;;;;;;;6.35;100.00;100391.19;1746439;80;20959;-64
2022/11/09 00:08:10;;;;;;;16.75;12.70;;;;;;;6.37;100.00;100396.41;1742015;80;21066;-64
2022/11/09 00:10:37;;;;;;;16.45;12.18;;;;;;;6.38;100.00;100396.35;1747361;80;21518;-64
2022/11/09 00:13:03;;;;;;;17.35;11.95;;;;;;;6.39;100.00;100398.55;1747861;80;21843;-64
2022/11/09 00:15:30;;;;;;;13.48;11.60;;;;;;;6.42;100.00;100397.18;1757018;80;21589;-64
2022/11/09 00:18:01;;;;;;;14.73;11.93;;;;;;;6.47;100.00;100397.98;1753076;80;21482;-64
2022/11/09 00:20:28;;;;;;;16.10;12.70;;;;;;;6.51;100.00;100390.97;1758895;80;21553;-65
2022/11/09 00:22:55;;;;;;;14.93;11.93;;;;;;;6.52;100.00;100390.11;1750561;80;21034;-64
2022/11/09 00:25:22;;;;;;;15.27;11.40;;;;;;;6.53;100.00;100384.83;1715400;82;21873;-64
2022/11/09 00:27:50;;;;;;;14.68;11.10;;;;;;;6.56;100.00;100388.72;1745880;80;21435;-64
2022/11/09 00:30:17;;;;;;;15.77;10.20;;;;;;;6.55;100.00;100385.67;1761187;80;21569;-64
2022/11/09 00:32:46;;;;;;;16.57;11.53;;;;;;;6.56;100.00;100383.94;1759662;80;20966;-64
2022/11/09 00:35:13;;;;;;;14.13;11.12;;;;;;;6.55;100.00;100383.05;1748643;80;21093;-64
2022/11/09 00:37:40;;;;;;;15.83;10.43;;;;;;;6.57;100.00;100382.62;1746499;80;21855;-64
2022/11/09 00:40:10;;;;;;;12.88;9.90;;;;;;;6.54;100.00;100389.19;1734285;80;21431;-64
2022/11/09 00:42:38;;;;;;;11.65;9.53;;;;;;;6.49;100.00;100384.45;1754098;80;21545;-64
2022/11/09 00:45:06;;;;;;;12.40;8.83;;;;;;;6.47;100.00;100385.38;1752846;80;21557;-64
2022/11/09 00:47:33;;;;;;;12.03;7.67;;;;;;;6.47;100.00;100387.98;1753857;80;21580;-64
2022/11/09 00:49:59;;;;;;;9.43;7.95;;;;;;;6.49;100.00;100388.38;1758104;80;21843;-64
2022/11/09 00:52:26;;;;;;;9.73;6.42;;;;;;;6.54;100.00;100393.10;1742738;80;21505;-65
2022/11/09 00:54:53;;;;;;;8.15;7.20;;;;;;;6.59;100.00;100388.69;1752183;80;21487;-65
2022/11/09 00:57:19;;;;;;;8.20;7.25;;;;;;;6.62;100.00;100388.62;1752033;80;21002;-65
2022/11/09 00:59:47;;;;;;;;;;;;;;;6.65;100.00;100389.03;1722199;82;21498;-65
2022/11/09 01:02:14;;;;;;;11.18;6.83;;;;;;;6.61;100.00;100395.17;1691024;83;20853;-66
2022/11/09 01:04:40;;;;;;;8.58;7.15;;;;;;;6.67;100.00;100387.68;1752149;80;21423;-65
2022/11/09 01:07:07;;;;;;;9.35;6.95;;;;;;;6.69;100.00;100397.24;1761134;80;21475;-64
2022/11/09 01:09:35;;;;;;;10.05;7.33;;;;;;;6.70;100.00;100387.64;1750946;80;21541;-65
2022/11/09 01:12:01;;;;;;;9.28;7.47;;;;;;;6.68;100.00;100390.73;1747740;80;21510;-65
2022/11/09 01:14:28;;;;;;;10.90;8.58;;;;;;;6.61;100.00;100384.30;1753781;80;21988;-65
2022/11/09 01:16:56;;;;;;;10.08;7.90;;;;;;;6.57;100.00;100386.54;1751082;80;21423;-65
2022/11/09 01:19:24;;;;;;;8.73;7.92;;;;;;;6.53;100.00;100389.20;1745440;80;21483;-65
2022/11/09 01:21:52;;;;;;;9.43;8.15;;;;;;;6.47;100.00;100386.68;1753931;80;21490;-65
2022/11/09 01:24:20;;;;;;;10.98;8.18;;;;;;;6.38;100.00;100383.74;1744807;80;21567;-65
2022/11/09 01:26:47;;;;;;;8.53;7.60;;;;;;;6.31;100.00;100382.09;1748222;80;21828;-65
2022/11/09 01:29:14;;;;;;;9.70;7.90;;;;;;;6.27;100.00;100385.64;1754930;80;21498;-65
2022/11/09 01:31:42;;;;;;;9.78;7.70;;;;;;;6.18;100.00;100385.34;1754443;80;21548;-65
2022/11/09 01:34:08;;;;;;;9.30;7.30;;;;;;;6.10;100.00;100389.77;1749483;80;21511;-65
2022/11/09 01:36:35;;;;;;;9.15;7.25;;;;;;;6.02;100.00;100390.72;1755916;80;21069;-66
2022/11/09 01:39:01;;;;;;;8.35;7.45;;;;;;;5.99;100.00;100392.50;1742110;80;21813;-65
2022/11/09 01:41:28;;;;;;;9.00;7.70;;;;;;;5.98;100.00;100390.80;1750735;80;21451;-66
2022/11/09 01:44:18;;;;;;;11.00;7.90;;;;;;;5.97;100.00;100396.88;1742562;80;21501;-65
2022/11/09 01:47:03;;;;;;;9.65;8.65;;;;;;;5.97;100.00;100396.47;1727427;80;21533;-66
2022/11/09 01:49:52;;;;;;;10.18;9.10;;;;;;;5.92;100.00;100395.61;1755420;80;21617;-65
2022/11/09 01:52:27;;;;;;;13.50;9.83;;;;;;;5.87;100.00;100396.55;1752406;80;21896;-65
2022/11/09 01:55:03;;;;;;;10.28;9.15;;;;;;;5.86;100.00;100406.13;1737377;80;20947;-65
2022/11/09 01:57:35;;;;;;;9.63;8.70;;;;;;;5.87;100.00;100401.77;1752133;80;21529;-66
2022/11/09 02:00:07;;;;;;;12.30;9.58;;;;;;;5.80;100.00;100407.06;1756438;80;21018;-65
2022/11/09 02:02:45;;;;;;;12.73;9.63;;;;;;;5.77;100.00;100408.39;1747233;80;21432;-64
2022/11/09 02:05:16;;;;;;;13.50;9.33;;;;;;;5.77;100.00;100407.53;1748512;80;21810;-64
2022/11/09 02:07:44;;;;;;;12.47;9.48;;;;;;;5.76;100.00;100407.95;1749737;80;21483;-65
2022/11/09 02:10:18;;;;;;;11.40;10.05;;;;;;;5.76;100.00;100407.09;1755820;80;20927;-65
2022/11/09 02:12:45;;;;;;;14.40;9.45;;;;;;;5.74;100.00;100415.39;1716368;80;21462;-65
2022/11/09 02:15:12;;;;;;;12.10;9.73;;;;;;;5.70;100.00;100413.25;1760929;80;21025;-65
2022/11/09 02:17:40;;;;;;;13.05;10.05;;;;;;;5.71;100.00;100420.63;1757462;80;22010;-65
2022/11/09 02:20:11;;;;;;;14.68;9.50;;;;;;;5.70;100.00;100412.39;1753571;80;21483;-66
2022/11/09 02:22:40;;;;;;;10.60;8.85;;;;;;;5.69;100.00;100418.06;1761496;80;21037;-65
2022/11/09 02:25:08;;;;;;;10.13;9.08;;;;;;;5.68;100.00;100415.02;1765971;80;21494;-65
2022/11/09 02:27:38;;;;;;;11.93;9.08;;;;;;;5.65;100.00;100417.64;1765002;80;21490;-65
2022/11/09 02:30:07;;;;;;;13.03;9.48;;;;;;;5.65;100.00;100421.55;1750197;80;21755;-65
2022/11/09 02:32:35;;;;;;;15.23;9.50;;;;;;;5.69;100.00;100421.09;1764263;80;21635;-65
2022/11/09 02:35:02;;;;;;;11.43;9.25;;;;;;;5.68;100.00;100412.41;1758616;80;21450;-66
2022/11/09 02:37:36;;;;;;;11.23;9.50;;;;;;;5.70;100.00;100417.61;1752315;80;21514;-65
2022/11/09 02:40:09;;;;;;;11.38;8.88;;;;;;;5.71;100.00;100416.71;1746905;80;21494;-65
2022/11/09 02:42:35;;;;;;;10.70;9.35;;;;;;;5.70;100.00;100413.25;1764681;80;21888;-66
2022/11/09 02:45:03;;;;;;;12.23;9.33;;;;;;;5.72;100.00;100411.93;1759061;80;21422;-65
2022/11/09 02:47:30;;;;;;;12.33;9.17;;;;;;;5.71;100.00;100411.08;1755552;80;21636;-66
2022/11/09 02:49:56;;;;;;;10.53;8.75;;;;;;;5.72;100.00;100412.79;1741089;80;21584;-65
2022/11/09 02:52:23;;;;;;;9.67;7.80;;;;;;;5.75;100.00;100409.30;1762049;80;21001;-65
2022/11/09 02:54:51;;;;;;;10.53;8.23;;;;;;;5.74;100.00;100418.00;1748479;80;21850;-67
2022/11/09 02:57:18;;;;;;;12.85;8.55;;;;;;;5.72;100.00;100411.48;1765037;80;21649;-65
2022/11/09 02:59:44;;;;;;;11.40;8.68;;;;;;;5.71;100.00;100412.38;1751067;80;21557;-65
2022/11/09 03:02:11;;;;;;;11.12;8.25;;;;;;;5.70;100.00;100418.47;1761781;80;21503;-65
2022/11/09 03:04:40;;;;;;;9.88;7.95;;;;;;;5.63;100.00;100411.16;1767034;80;21046;-65
2022/11/09 03:07:07;;;;;;;9.00;7.87;;;;;;;5.58;100.00;100414.25;1750899;80;22021;-66
2022/11/09 03:09:34;;;;;;;13.62;8.48;;;;;;;5.57;100.00;100420.78;1751622;80;21673;-65
2022/11/09 03:12:27;;;;;;;11.40;8.48;;;;;;;5.54;100.00;100415.16;1758509;80;21062;-65
2022/11/09 03:14:30;;;;;;;9.10;8.13;;;;;;;5.53;100.00;100419.94;1745345;80;21557;-65
2022/11/09 03:16:58;;;;;;;10.18;8.20;;;;;;;5.52;100.00;100418.64;1748023;80;22237;-67
2022/11/09 03:19:24;;;;;;;8.98;7.78;;;;;;;5.50;100.00;100421.71;1760390;80;21498;-66
2022/11/09 03:21:51;;;;;;;10.72;7.83;;;;;;;5.49;100.00;100422.16;1750255;80;21623;-65
2022/11/09 03:24:20;;;;;;;9.03;7.83;;;;;;;5.46;100.00;100424.78;1749385;80;21519;-65
2022/11/09 03:26:49;;;;;;;10.50;8.85;;;;;;;5.45;100.00;100425.23;1754109;80;21588;-65
2022/11/09 03:29:15;;;;;;;9.68;8.38;;;;;;;5.44;100.00;100426.13;1738258;80;21518;-67
2022/11/09 03:31:43;;;;;;;8.63;7.60;;;;;;;5.45;100.00;100424.38;1747321;80;21866;-65
2022/11/09 03:34:10;;;;;;;9.83;7.95;;;;;;;5.43;100.00;100429.60;1757594;80;20995;-66
2022/11/09 03:36:38;;;;;;;9.15;8.28;;;;;;;5.41;100.00;100426.14;1743822;80;21628;-66
2022/11/09 03:39:04;;;;;;;11.50;8.63;;;;;;;5.38;100.00;100426.61;1756455;80;21462;-65
2022/11/09 03:41:32;;;;;;;10.63;7.65;;;;;;;5.35;100.00;100422.30;1746579;80;21140;-65
2022/11/09 03:43:59;;;;;;;8.77;7.87;;;;;;;5.27;100.00;100426.70;1757933;80;21725;-66
2022/11/09 03:46:26;;;;;;;9.35;8.38;;;;;;;5.21;100.00;100420.23;1740261;80;21477;-65
2022/11/09 03:48:52;;;;;;;8.53;7.67;;;;;;;5.15;100.00;100421.16;1742263;80;21522;-68
2022/11/09 03:51:19;;;;;;;9.13;7.58;;;;;;;5.11;100.00;100425.12;1756848;80;20987;-66
2022/11/09 03:53:46;;;;;;;10.18;8.05;;;;;;;5.10;100.00;100424.23;1754707;80;21486;-65
2022/11/09 03:56:13;;;;;;;9.58;8.58;;;;;;;5.04;100.00;100423.84;1739938;80;21815;-65
2022/11/09 03:58:39;;;;;;;12.93;7.80;;;;;;;5.02;100.00;100422.98;1751506;80;21507;-65
2022/11/09 04:01:06;;;;;;;9.75;7.53;;;;;;;4.98;100.00;100416.52;1736460;80;21439;-65
2022/11/09 04:03:33;;;;;;;10.47;9.00;;;;;;;4.96;100.00;100420.44;1755484;80;21584;-65
2022/11/09 04:06:00;;;;;;;11.40;8.63;;;;;;;4.94;100.00;100414.38;1754559;80;21512;-65
2022/11/09 04:08:26;;;;;;;10.05;8.75;;;;;;;4.96;100.00;100411.77;1747674;80;22072;-65
2022/11/09 04:10:53;;;;;;;13.43;9.60;;;;;;;4.94;100.00;100414.38;1744898;80;21489;-65
2022/11/09 04:13:19;;;;;;;10.50;8.05;;;;;;;4.94;100.00;100411.77;1752811;80;21546;-65
2022/11/09 04:15:46;;;;;;;9.88;8.58;;;;;;;4.91;100.00;100418.73;1743784;80;21439;-65
2022/11/09 04:18:14;;;;;;;9.50;8.53;;;;;;;4.89;100.00;100417.44;1748040;80;21616;-65
2022/11/09 04:20:42;;;;;;;9.68;8.68;;;;;;;4.91;100.00;100426.56;1742711;80;21538;-66
2022/11/09 04:23:12;;;;;;;12.28;9.98;;;;;;;4.90;100.00;100427.00;1748606;80;21604;-65
2022/11/09 04:25:40;;;;;;;13.93;9.83;;;;;;;4.94;100.00;100429.16;1756589;80;21557;-65
2022/11/09 04:28:10;;;;;;;13.48;10.25;;;;;;;4.97;100.00;100431.30;1738529;80;21584;-67
2022/11/09 04:30:38;;;;;;;11.90;9.93;;;;;;;4.99;100.00;100427.36;1743032;80;21005;-65
2022/11/09 04:33:05;;;;;;;14.00;10.28;;;;;;;4.99;100.00;100432.16;1749366;80;21751;-66
2022/11/09 04:35:32;;;;;;;12.65;10.72;;;;;;;4.99;100.00;100429.55;1711243;82;21109;-66
2022/11/09 04:38:04;;;;;;;12.17;9.60;;;;;;;5.02;100.00;100429.95;1757345;80;20978;-66
2022/11/09 04:40:33;;;;;;;12.93;10.20;;;;;;;5.03;100.00;100435.61;1744608;80;21526;-65
2022/11/09 04:43:01;;;;;;;10.75;9.60;;;;;;;5.04;100.00;100441.23;1751572;80;21564;-60
2022/11/09 04:45:28;;;;;;;12.03;10.20;;;;;;;5.02;100.00;100434.72;1749363;80;21798;-59
2022/11/09 04:48:00;;;;;;;11.25;10.08;;;;;;;5.04;100.00;100440.78;1736036;80;21541;-63
2022/11/09 04:50:27;;;;;;;12.45;10.28;;;;;;;5.05;100.00;100442.53;1715094;82;20963;-61
2022/11/09 04:52:53;;;;;;;13.18;10.60;;;;;;;5.06;100.00;100452.50;1752440;80;21506;-61
2022/11/09 04:55:20;;;;;;;13.55;10.75;;;;;;;5.08;100.00;100453.36;1757806;79;21515;-61
2022/11/09 04:57:47;;;;;;;11.70;10.50;;;;;;;5.09;100.00;100449.03;1750317;80;21835;-59
2022/11/09 05:00:15;;;;;;;12.82;10.43;;;;;;;5.07;100.00;100452.50;1750880;80;21533;-61
2022/11/09 05:02:41;;;;;;;12.03;10.20;;;;;;;5.05;100.00;100456.00;1751712;79;21569;-64
2022/11/09 05:05:08;;;;;;;14.17;10.77;;;;;;;5.03;100.00;100455.16;1751675;80;21558;-62
2022/11/09 05:07:36;;;;;;;12.13;10.48;;;;;;;5.02;100.00;100457.31;1752075;80;21513;-61
2022/11/09 05:10:04;;;;;;;13.45;10.70;;;;;;;4.99;100.00;100461.23;1752090;80;21712;-61
2022/11/09 05:12:31;;;;;;;11.83;10.35;;;;;;;5.00;100.00;100466.89;1750728;80;20998;-67
2022/11/09 05:14:58;;;;;;;16.00;11.28;;;;;;;5.00;100.00;100466.45;1748818;80;21534;-63
2022/11/09 05:17:24;;;;;;;14.13;10.63;;;;;;;4.99;100.00;100471.25;1707448;80;21620;-60
2022/11/09 05:19:51;;;;;;;12.85;11.45;;;;;;;4.99;100.00;100472.97;1751009;80;21564;-60
2022/11/09 05:25:04;;;;;;;11.80;10.38;;;;;;;5.05;100.00;100484.23;1749737;80;21518;-60
2022/11/09 05:27:31;;;;;;;14.80;10.88;;;;;;;5.09;100.00;100491.59;1751876;80;21422;-61
2022/11/09 05:29:57;;;;;;;15.13;11.57;;;;;;;5.12;100.00;100491.55;1749269;80;21425;-61
2022/11/09 05:32:24;;;;;;;12.18;10.82;;;;;;;5.15;100.00;100490.69;1752304;80;21596;-60
2022/11/09 05:34:51;;;;;;;12.43;10.50;;;;;;;5.19;100.00;100495.00;1754500;79;22557;-60
2022/11/09 05:37:21;;;;;;;16.97;11.90;;;;;;;5.20;100.00;100494.14;1752399;80;21526;-60
2022/11/09 05:39:47;;;;;;;12.75;11.12;;;;;;;5.24;100.00;100501.05;1750518;80;21535;-60
2022/11/09 05:42:14;;;;;;;13.50;11.07;;;;;;;5.26;100.00;100504.52;1747178;80;21545;-61
2022/11/09 05:44:42;;;;;;;12.45;10.68;;;;;;;5.31;100.00;100503.16;1750287;79;21570;-60
2022/11/09 05:47:09;;;;;;;12.98;10.85;;;;;;;5.35;100.00;100507.05;1751035;80;21914;-59
2022/11/09 05:49:36;;;;;;;15.40;11.48;;;;;;;5.35;100.00;100509.66;1751707;80;21545;-59
2022/11/09 05:52:04;;;;;;;14.05;11.73;;;;;;;5.37;100.00;100514.84;1753583;80;21538;-59
2022/11/09 05:54:31;;;;;;;13.62;11.20;;;;;;;5.40;100.00;100516.13;1751381;80;21493;-59
2022/11/09 05:57:00;;;;;;;13.25;11.00;;;;;;;5.42;100.00;100518.28;1745465;80;21585;-59
2022/11/09 05:59:27;;;;;;;15.30;11.83;;;;;;;5.48;100.00;100522.14;1760141;80;21744;-59
2022/11/09 06:01:53;;;;;;;16.93;11.45;;;;;;;5.53;100.00;100529.95;1757872;80;21407;-60
2022/11/09 06:04:20;;;;;;;15.40;12.58;;;;;;;5.61;100.00;100530.33;1754032;80;21496;-59
2022/11/09 06:06:47;;;;;;;14.43;11.18;;;;;;;5.71;100.00;100533.72;1752037;80;21553;-59
2022/11/09 06:09:14;;;;;;;12.68;11.20;;;;;;;5.80;100.00;100528.42;1755083;80;21584;-59
2022/11/09 06:11:40;;;;;;;17.15;12.03;;;;;;;5.89;100.00;100535.73;1755908;80;21799;-60
2022/11/09 06:14:08;;;;;;;15.40;12.60;;;;;;;5.98;100.00;100532.62;1756513;80;21511;-60
2022/11/09 06:16:35;;;;;;;16.00;12.33;;;;;;;6.06;100.00;100533.84;1758239;80;21584;-61
2022/11/09 06:19:02;;;;;;;16.57;11.60;;;;;;;6.13;100.00;100533.36;1759799;80;21719;-61
2022/11/09 06:21:29;;;;;;;14.27;11.73;;;;;;;6.18;100.00;100536.34;1755721;80;21418;-60
2022/11/09 06:25:14;;;;;;;12.13;10.85;;;;;;;5.99;100.00;100542.61;1797215;78;23523;-60
2022/11/09 06:27:40;;;;;;;12.85;10.95;;;;;;;6.30;100.00;100537.95;1761793;80;21580;-60
2022/11/09 06:30:08;;;;;;;14.58;10.60;;;;;;;6.43;100.00;100539.98;1769877;80;21810;-60
2022/11/09 06:32:35;;;;;;;14.15;11.38;;;;;;;6.52;100.00;100546.41;1765492;80;21545;-61
2022/11/09 06:35:02;;;;;;;11.10;9.88;;;;;;;6.63;100.00;100543.23;1753884;80;21417;-61
2022/11/09 06:37:28;;;;;;;14.03;11.90;;;;;;;6.73;100.00;100544.42;1765819;80;21438;-61
2022/11/09 06:39:56;;;;;;;15.50;12.18;;;;;;;6.82;100.00;100539.94;1764408;80;21436;-61
2022/11/09 06:42:23;;;;;;;14.00;10.98;;;;;;;6.92;100.00;100545.05;1771472;80;21756;-61
2022/11/09 06:44:50;;;;;;;14.75;10.65;;;;;;;7.01;100.00;100544.93;1759228;80;21534;-61
2022/11/09 06:47:17;;;;;;;11.80;10.28;;;;;;;7.11;100.00;100536.05;1757322;80;21561;-60
2022/11/09 06:49:44;;;;;;;11.70;9.25;;;;;;;7.21;100.00;100544.20;1762787;80;21041;-61
2022/11/09 06:52:11;;;;;;;10.50;9.40;;;;;;;7.28;100.00;100540.19;1763285;80;21459;-60
2022/11/09 06:54:38;;;;;;;10.95;9.85;;;;;;;7.35;100.00;100543.98;1763552;80;21774;-60
2022/11/09 06:57:05;;;;;;;11.63;8.93;;;;;;;7.45;100.00;100541.23;1757336;80;21537;-61
2022/11/09 06:59:32;;;;;;;11.38;9.00;;;;;;;7.52;100.00;100535.87;1761127;80;21013;-61
2022/11/09 07:01:59;;;;;;;10.03;8.97;;;;;;;7.63;100.00;100523.05;1769467;80;21426;-61
2022/11/09 07:04:26;;;;;;;9.70;8.70;;;;;;;7.70;100.00;100525.53;1768341;80;21461;-61
2022/11/09 07:06:54;;;;;;;11.88;9.40;;;;;;;7.80;100.00;100527.58;1759020;80;21845;-61
2022/11/09 07:09:21;;;;;;;9.28;8.40;;;;;;;7.88;100.00;100520.89;1768615;80;21635;-61
2022/11/09 07:11:48;;;;;;;9.75;8.65;;;;;;;7.98;100.00;100523.75;1755644;80;21513;-60
2022/11/09 07:14:15;;;;;;;9.83;8.80;;;;;;;8.06;100.00;100527.53;1765054;80;21507;-61
2022/11/09 07:16:41;;;;;;;13.50;9.58;;;;;;;8.17;100.00;100526.47;1760456;80;21644;-61
2022/11/09 07:19:08;;;;;;;9.83;8.15;;;;;;;8.28;100.00;100527.55;1760729;79;21855;-61
2022/11/09 07:21:36;;;;;;;8.78;7.90;;;;;;;8.42;100.00;100527.76;1760978;80;21518;-61
2022/11/09 07:24:04;;;;;;;9.00;8.10;;;;;;;8.54;100.00;100527.07;1755075;80;21632;-61
2022/11/09 07:26:31;;;;;;;9.15;8.30;;;;;;;8.65;100.00;100532.56;1749664;80;20996;-61
2022/11/09 07:28:57;;;;;;;8.18;7.35;;;;;;;8.76;100.00;100522.71;1748546;80;21541;-61
2022/11/09 07:31:28;;;;;;;8.58;7.70;;;;;;;8.88;100.00;100522.88;1748845;80;22114;-61
2022/11/09 07:33:53;;;;;;;8.83;7.78;;;;;;;9.00;100.00;100523.05;1748555;80;21530;-61
2022/11/09 07:36:20;;;;;;;9.18;7.75;;;;;;;9.10;100.00;100516.27;1746922;80;21519;-61
2022/11/09 07:38:46;;;;;;;8.75;7.78;;;;;;;9.19;100.00;100520.41;1747981;80;21518;-62
2022/11/09 07:41:13;;;;;;;8.90;8.00;;;;;;;9.32;100.00;100520.58;1750447;80;20931;-67
2022/11/09 07:43:41;;;;;;;8.83;7.12;;;;;;;9.42;100.00;100522.52;1748866;80;21878;-61
2022/11/09 07:46:07;;;;;;;7.60;6.83;;;;;;;9.52;100.00;100519.22;1744892;80;21049;-62
2022/11/09 07:48:34;;;;;;;8.90;7.17;;;;;;;9.59;100.00;100515.55;1741630;80;21006;-61
2022/11/09 07:51:01;;;;;;;7.12;6.47;;;;;;;9.67;100.00;100513.58;1748310;80;21529;-61
2022/11/09 07:53:28;;;;;;;10.65;7.12;;;;;;;9.78;100.00;100510.69;1751600;80;21086;-61
2022/11/09 07:55:59;;;;;;;7.92;7.20;;;;;;;9.87;100.00;100510.88;1752213;80;21734;-61
2022/11/09 07:58:27;;;;;;;7.25;6.37;;;;;;;10.00;100.00;100510.11;1756125;80;21613;-61
2022/11/09 08:00:54;;;;;;;7.40;5.70;;;;;;;10.09;100.00;100509.88;1745989;80;21569;-61
2022/11/09 08:03:21;;;;;;;7.25;5.40;;;;;;;10.18;100.00;100508.31;1748929;80;21636;-59
2022/11/09 08:05:48;;;;;;;6.55;4.35;;;;;;;10.28;100.00;100504.97;1745958;80;21518;-59
2022/11/09 08:08:15;;;;;;;6.40;4.47;;;;;;;10.36;100.00;100499.10;1742744;80;21784;-59
2022/11/09 08:10:43;;;;;;;6.95;4.08;;;;;;;10.43;100.00;100495.83;1753391;80;21616;-59
2022/11/09 08:13:12;;;;;;;4.30;3.90;;;;;;;10.54;100.00;100497.70;1747619;80;21444;-59
2022/11/09 08:15:40;;;;;;;4.58;4.05;;;;;;;10.67;100.00;100496.42;1750396;80;21483;-59
2022/11/09 08:18:13;;;;;;;3.85;3.27;;;;;;;10.76;100.00;100494.45;1741307;80;21464;-59
2022/11/09 08:20:40;;;;;;;4.60;3.52;;;;;;;10.84;100.00;100491.97;1741656;80;21561;-60
2022/11/09 08:23:09;;;;;;;6.03;3.62;;;;;;;10.94;100.00;100494.33;1740154;80;20954;-60
2022/11/09 08:25:35;;;;;;;4.37;3.90;;;;;;;11.04;100.00;100487.89;1736944;80;21482;-61
2022/11/09 08:28:03;;;;;;;4.20;3.80;;;;;;;11.13;100.00;100486.72;1758602;80;21498;-60
2022/11/09 08:30:29;;;;;;;4.67;4.22;;;;;;;11.25;100.00;100486.34;1747806;80;21078;-60
2022/11/09 08:32:58;;;;;;;5.65;4.12;;;;;;;11.37;100.00;100488.56;1759297;80;21541;-60
2022/11/09 08:35:25;;;;;;;5.12;4.50;;;;;;;11.48;100.00;100487.75;1758039;80;21466;-60
2022/11/09 08:37:52;;;;;;;7.00;4.75;;;;;;;11.56;100.00;100482.69;1761262;80;21558;-60
2022/11/09 08:40:22;;;;;;;5.05;4.20;;;;;;;11.61;100.00;100478.99;1757932;80;21563;-60
2022/11/09 08:42:49;;;;;;;4.75;3.67;;;;;;;11.68;100.00;100480.52;1759604;80;21504;-60
2022/11/09 08:45:16;;;;;;;5.17;4.50;;;;;;;11.76;100.00;100480.25;1761717;80;21885;-60
2022/11/09 08:47:42;;;;;;;3.90;3.50;;;;;;;11.84;100.00;100472.08;1759894;80;21586;-60
2022/11/09 08:50:10;;;;;;;5.30;3.45;;;;;;;11.96;100.00;100478.28;1760584;80;21042;-60
2022/11/09 08:52:38;;;;;;;3.92;3.52;;;;;;;12.04;100.00;100472.73;1762854;80;21072;-60
2022/11/09 08:55:05;;;;;;;5.35;3.52;;;;;;;12.07;100.00;100470.85;1736713;80;21542;-62
2022/11/09 08:57:31;;;;;;;4.28;3.35;;;;;;;12.10;100.00;100459.33;1749322;80;22407;-60
2022/11/09 08:59:58;;;;;;;4.55;3.55;;;;;;;12.15;100.00;100460.46;1757439;80;21522;-61
2022/11/09 09:02:25;;;;;;;5.60;3.58;;;;;;;12.20;100.00;100459.84;1753487;80;21719;-60
2022/11/09 09:04:51;;;;;;;4.75;3.27;;;;;;;12.29;100.00;100468.73;1763353;80;21586;-60
2022/11/09 09:07:18;;;;;;;4.83;3.33;;;;;;;12.41;100.00;100464.34;1766995;80;21578;-59
2022/11/09 09:09:44;;;;;;;5.83;3.83;;;;;;;12.50;100.00;100456.52;1755542;80;21911;-59
2022/11/09 09:12:12;;;;;;;6.35;3.60;;;;;;;12.61;100.00;100461.41;1761129;80;21418;-60
2022/11/09 09:14:39;;;;;;;3.55;3.25;;;;;;;12.72;100.00;100457.04;1762506;80;21569;-60
2022/11/09 09:17:06;;;;;;;3.05;2.67;;;;;;;12.81;100.00;100452.73;1760660;80;21077;-60
2022/11/09 09:19:33;;;;;;;3.80;3.05;;;;;;;12.97;100.00;100446.37;1757804;80;21639;-60
2022/11/09 09:22:00;;;;;;;4.45;2.90;;;;;;;13.23;100.00;100451.45;1760264;79;22083;-60
2022/11/09 09:24:27;;;;;;;4.35;3.37;;;;;;;13.49;100.00;100443.42;1764025;80;21473;-60
2022/11/09 09:26:54;;;;;;;4.50;3.08;;;;;;;13.77;100.00;100449.70;1758642;80;21554;-59
2022/11/09 09:29:21;;;;;;;3.22;2.92;;;;;;;13.98;100.00;100446.11;1749722;80;21645;-60
2022/11/09 09:31:49;;;;;;;5.10;3.22;;;;;;;14.18;100.00;100448.32;1760089;80;21585;-60
2022/11/09 09:34:16;;;;;;;3.50;2.63;;;;;;;14.35;100.00;100435.21;1754806;80;21921;-59
2022/11/09 09:36:44;;;;;;;2.95;2.50;;;;;;;14.52;100.00;100437.08;1759558;80;21533;-62
2022/11/09 09:39:11;;;;;;;5.08;2.67;;;;;;;14.57;100.00;100430.27;1750166;80;21565;-60
2022/11/09 09:42:07;;;;;;;5.47;2.85;;;;;;;14.64;100.00;100426.88;1757775;80;21545;-59
2022/11/09 09:44:50;;;;;;;4.40;2.67;;;;;;;14.62;100.00;100424.30;1753994;80;20961;-59
2022/11/09 09:47:58;;;;;;;3.62;2.52;;;;;;;14.63;100.00;100426.48;1697287;83;21919;-60
2022/11/09 09:50:36;;;;;;;4.30;2.37;;;;;;;14.69;100.00;100424.85;1743311;80;21522;-59
2022/11/09 09:53:13;;;;;;;4.30;2.87;;;;;;;14.71;100.00;100422.55;1758264;80;21455;-59
2022/11/09 09:55:43;;;;;;;3.05;2.45;;;;;;;14.77;100.00;100421.39;1757346;80;21591;-59
2022/11/09 14:00:25;;;;;;;6.70;6.05;;;;;;;10.28;100.00;100379.70;1773227;78;23252;-60
2022/11/09 14:03:26;;;;;;;9.98;6.67;;;;;;;10.69;100.00;100377.57;1731580;80;20942;-59
2022/11/09 14:06:13;;;;;;;7.75;6.47;;;;;;;10.75;100.00;100369.94;1737088;80;21592;-60
2022/11/09 14:08:59;;;;;;;8.23;6.83;;;;;;;10.75;100.00;100367.30;1745188;80;21541;-60
2022/11/09 14:12:04;;;;;;;10.58;7.80;;;;;;;10.78;100.00;100366.37;1740962;80;21510;-62
2022/11/09 14:14:55;;;;;;;11.48;7.40;;;;;;;10.79;100.00;100374.65;1704494;80;21486;-61
2022/11/09 14:17:51;;;;;;;8.20;7.28;;;;;;;10.75;100.00;100371.25;1734722;81;21526;-59
2022/11/09 14:20:47;;;;;;;9.15;6.97;;;;;;;10.73;100.00;100369.59;1738105;80;21498;-58
2022/11/09 14:23:33;;;;;;;;;;;;;;;10.67;100.00;100374.59;1750816;80;21550;-58
2022/11/09 14:26:21;;;;;;;10.00;6.58;;;;;;;10.55;100.00;100367.07;1738830;80;20435;-59
2022/11/09 14:29:22;;;;;;;8.25;6.87;;;;;;;10.53;100.00;100371.09;1739327;80;21546;-59
2022/11/09 14:32:30;;;;;;;7.60;6.78;;;;;;;10.48;100.00;100371.22;1732595;80;21525;-59
2022/11/09 14:35:27;;;;;;;8.60;7.22;;;;;;;10.46;100.00;100370.41;1737114;80;21823;-58
2022/11/09 14:38:21;;;;;;;7.90;6.95;;;;;;;10.48;100.00;100370.36;1727823;80;21482;-59
2022/11/09 14:41:23;;;;;;;7.70;7.00;;;;;;;10.43;100.00;100367.86;1737553;81;21565;-59
2022/11/09 14:44:20;;;;;;;8.18;7.03;;;;;;;10.38;100.00;100373.73;1737048;80;21483;-60
2022/11/09 14:47:17;;;;;;;7.55;6.75;;;;;;;10.34;100.00;100370.80;1688320;83;21566;-66
2022/11/09 14:50:02;;;;;;;7.08;6.35;;;;;;;10.30;100.00;100375.28;1694904;83;22217;-66
2022/11/09 14:52:50;;;;;;;8.43;7.60;;;;;;;10.25;100.00;100381.09;1704712;82;21485;-65
2022/11/09 14:55:42;;;;;;;9.00;7.53;;;;;;;10.16;100.00;100376.09;1699491;82;21465;-64
2022/11/09 14:58:28;;;;;;;8.10;7.35;;;;;;;10.11;100.00;100375.36;1688646;83;21569;-65
2022/11/09 15:01:22;;;;;;;14.00;7.40;;;;;;;10.08;100.00;100375.47;1684969;83;21537;-66
2022/11/09 15:04:19;;;;;;;8.30;7.37;;;;;;;10.03;100.00;100376.05;1694525;82;21809;-67
2022/11/09 15:07:06;;;;;;;7.60;6.90;;;;;;;9.95;100.00;100385.47;1674276;83;20998;-65
2022/11/09 15:09:57;;;;;;;10.75;7.65;;;;;;;9.86;100.00;100378.70;1680787;83;21488;-65
2022/11/09 15:12:54;;;;;;;8.10;7.08;;;;;;;9.80;100.00;100385.44;1684017;83;21479;-66
2022/11/09 15:15:39;;;;;;;9.40;7.50;;;;;;;9.74;100.00;100387.78;1689549;83;20979;-66
2022/11/09 15:18:29;;;;;;;8.68;7.78;;;;;;;9.68;100.00;100386.66;1689543;84;21901;-64
2022/11/09 15:21:28;;;;;;;9.23;8.33;;;;;;;9.63;100.00;100383.28;1688841;83;21391;-67
2022/11/09 15:24:15;;;;;;;8.75;7.95;;;;;;;9.55;100.00;100385.27;1683768;83;21438;-65
2022/11/09 15:27:01;;;;;;;10.82;9.13;;;;;;;9.48;100.00;100384.55;1680529;83;21431;-65
2022/11/09 15:29:46;;;;;;;11.63;9.48;;;;;;;9.44;100.00;100375.50;1689291;82;21541;-66
2022/11/09 15:32:36;;;;;;;10.03;9.10;;;;;;;9.34;100.00;100378.79;1688148;83;21550;-65
2022/11/09 15:35:22;;;;;;;11.75;9.60;;;;;;;9.20;100.00;100379.61;1726279;80;21466;-65
2022/11/09 15:38:37;;;;;;;12.73;9.93;;;;;;;9.11;100.00;100382.86;1732041;80;21542;-65
2022/11/09 15:41:23;;;;;;;11.90;9.63;;;;;;;9.05;100.00;100385.64;1731285;80;21444;-65